Watertown, Wisconsin
Current Conditions -  °F | °C
As of 9:55 PM on Thursday 18 Dec 2014 (Local Time) from KRYV Reporting Station
Overcast Overcast  
Wind Chill: -3°   Ceiling: 1700
Heat Index: -3°   Visibility: 10mi
Dew Point: -5°   Wind: 3mph
Humidity: 87%   Direction: 310°NW
Pressure: 30.26"   Gusts: NA
Location:  43.2°N, 88.72°W
Report Text: KRYV 190355Z AUTO 31003KT 10SM OVC017 M03/M05 A3026 RMK AO2 T10351054
Loading
Personal Weather Stations






























Interactive Weather Map New forecast layout! Learn more

10-Day Weather Forecast

Advertisements
Track Severe Weather on mobile